sensor_id;sensor_type;location;lat;lon;timestamp;pressure;altitude;pressure_sealevel;temperature;humidity
7105;BME280;3594;42.152;24.714;2024-01-10T00:02:22;-23792.19;;;-0.81;100.00
7105;BME280;3594;42.152;24.714;2024-01-10T00:05:09;-23793.03;;;-0.78;100.00
7105;BME280;3594;42.152;24.714;2024-01-10T00:07:55;-23795.34;;;-0.70;100.00
7105;BME280;3594;42.152;24.714;2024-01-10T00:10:55;-23790.59;;;-0.86;100.00
7105;BME280;3594;42.152;24.714;2024-01-10T00:13:46;-23791.19;;;-0.84;100.00
7105;BME280;3594;42.152;24.714;2024-01-10T00:16:12;-23794.91;;;-0.71;100.00
7105;BME280;3594;42.152;24.714;2024-01-10T00:18:41;-23795.34;;;-0.70;100.00
7105;BME280;3594;42.152;24.714;2024-01-10T00:21:07;-23791.19;;;-0.84;100.00
7105;BME280;3594;42.152;24.714;2024-01-10T00:23:33;-23792.63;;;-0.79;100.00
7105;BME280;3594;42.152;24.714;2024-01-10T00:25:59;-23791.47;;;-0.83;100.00
7105;BME280;3594;42.152;24.714;2024-01-10T00:28:25;-23789.47;;;-0.91;100.00
7105;BME280;3594;42.152;24.714;2024-01-10T00:30:51;-23792.63;;;-0.79;100.00
7105;BME280;3594;42.152;24.714;2024-01-10T00:33:17;-23794.06;;;-0.74;100.00
7105;BME280;3594;42.152;24.714;2024-01-10T00:35:42;-23796.06;;;-0.67;100.00
7105;BME280;3594;42.152;24.714;2024-01-10T00:38:09;-23794.47;;;-0.73;100.00
7105;BME280;3594;42.152;24.714;2024-01-10T00:40:34;-23786.59;;;-1.01;100.00
7105;BME280;3594;42.152;24.714;2024-01-10T00:43:01;-23788.59;;;-0.94;100.00
7105;BME280;3594;42.152;24.714;2024-01-10T00:45:26;-23783.28;;;-1.12;100.00
7105;BME280;3594;42.152;24.714;2024-01-10T00:47:52;-23786.72;;;-1.00;100.00
7105;BME280;3594;42.152;24.714;2024-01-10T00:50:17;-23793.47;;;-0.76;100.00
7105;BME280;3594;42.152;24.714;2024-01-10T00:52:44;-23793.47;;;-0.76;100.00
7105;BME280;3594;42.152;24.714;2024-01-10T00:55:10;-23787.59;;;-0.97;100.00
7105;BME280;3594;42.152;24.714;2024-01-10T00:57:35;-23790.59;;;-0.86;100.00
7105;BME280;3594;42.152;24.714;2024-01-10T01:00:06;-23789.88;;;-0.89;100.00
7105;BME280;3594;42.152;24.714;2024-01-10T01:02:32;-23792.19;;;-0.81;100.00
7105;BME280;3594;42.152;24.714;2024-01-10T01:04:57;-23791.91;;;-0.82;100.00
7105;BME280;3594;42.152;24.714;2024-01-10T01:07:22;-23791.19;;;-0.84;100.00
7105;BME280;3594;42.152;24.714;2024-01-10T01:09:48;-23788.16;;;-0.95;100.00
7105;BME280;3594;42.152;24.714;2024-01-10T01:12:13;-23795.34;;;-0.70;100.00
7105;BME280;3594;42.152;24.714;2024-01-10T01:14:39;-23796.19;;;-0.67;100.00
7105;BME280;3594;42.152;24.714;2024-01-10T01:17:04;-23795.19;;;-0.70;100.00
7105;BME280;3594;42.152;24.714;2024-01-10T01:19:29;-23785.59;;;-1.04;100.00
7105;BME280;3594;42.152;24.714;2024-01-10T01:21:55;-23793.47;;;-0.76;100.00
7105;BME280;3594;42.152;24.714;2024-01-10T01:24:20;-23795.75;;;-0.68;100.00
7105;BME280;3594;42.152;24.714;2024-01-10T01:26:46;-23790.19;;;-0.88;100.00
7105;BME280;3594;42.152;24.714;2024-01-10T01:29:11;-23797.78;;;-0.61;100.00
7105;BME280;3594;42.152;24.714;2024-01-10T01:31:36;-23797.50;;;-0.62;100.00
7105;BME280;3594;42.152;24.714;2024-01-10T01:34:03;-23792.91;;;-0.78;100.00
7105;BME280;3594;42.152;24.714;2024-01-10T01:36:28;-23801.94;;;-0.47;100.00
7105;BME280;3594;42.152;24.714;2024-01-10T01:38:54;-23791.59;;;-0.83;100.00
7105;BME280;3594;42.152;24.714;2024-01-10T01:41:19;-23790.03;;;-0.88;100.00
7105;BME280;3594;42.152;24.714;2024-01-10T01:43:44;-23792.47;;;-0.80;100.00
7105;BME280;3594;42.152;24.714;2024-01-10T01:46:11;-23791.03;;;-0.85;100.00
7105;BME280;3594;42.152;24.714;2024-01-10T01:48:37;-23789.59;;;-0.90;100.00
7105;BME280;3594;42.152;24.714;2024-01-10T01:51:06;-23789.88;;;-0.89;100.00
7105;BME280;3594;42.152;24.714;2024-01-10T01:53:35;-23795.47;;;-0.69;100.00
7105;BME280;3594;42.152;24.714;2024-01-10T01:56:06;-23800.50;;;-0.52;100.00
7105;BME280;3594;42.152;24.714;2024-01-10T01:58:32;-23801.22;;;-0.49;100.00
7105;BME280;3594;42.152;24.714;2024-01-10T02:00:58;-23792.75;;;-0.79;100.00
7105;BME280;3594;42.152;24.714;2024-01-10T02:03:24;-23800.34;;;-0.52;100.00
7105;BME280;3594;42.152;24.714;2024-01-10T02:05:50;-23797.63;;;-0.62;100.00
7105;BME280;3594;42.152;24.714;2024-01-10T02:08:15;-23794.34;;;-0.73;100.00
7105;BME280;3594;42.152;24.714;2024-01-10T02:10:41;-23791.31;;;-0.84;100.00
7105;BME280;3594;42.152;24.714;2024-01-10T02:13:06;-23800.34;;;-0.52;100.00
7105;BME280;3594;42.152;24.714;2024-01-10T02:15:34;-23801.50;;;-0.48;100.00
7105;BME280;3594;42.152;24.714;2024-01-10T02:18:00;-23799.50;;;-0.55;100.00
7105;BME280;3594;42.152;24.714;2024-01-10T02:20:26;-23794.06;;;-0.74;100.00
7105;BME280;3594;42.152;24.714;2024-01-10T02:22:51;-23801.50;;;-0.48;100.00
7105;BME280;3594;42.152;24.714;2024-01-10T02:25:17;-23798.34;;;-0.59;100.00
7105;BME280;3594;42.152;24.714;2024-01-10T02:27:43;-23794.91;;;-0.71;100.00
7105;BME280;3594;42.152;24.714;2024-01-10T02:30:08;-23791.47;;;-0.83;100.00
7105;BME280;3594;42.152;24.714;2024-01-10T02:32:34;-23793.75;;;-0.75;100.00
7105;BME280;3594;42.152;24.714;2024-01-10T02:35:00;-23790.91;;;-0.85;100.00
7105;BME280;3594;42.152;24.714;2024-01-10T02:37:26;-23783.72;;;-1.11;100.00
7105;BME280;3594;42.152;24.714;2024-01-10T02:39:51;-23789.47;;;-0.91;100.00
7105;BME280;3594;42.152;24.714;2024-01-10T02:42:17;-23796.91;;;-0.64;100.00
7105;BME280;3594;42.152;24.714;2024-01-10T02:44:43;-23796.91;;;-0.64;100.00
7105;BME280;3594;42.152;24.714;2024-01-10T02:47:09;-23792.03;;;-0.81;100.00
7105;BME280;3594;42.152;24.714;2024-01-10T02:49:34;-23795.34;;;-0.70;100.00
7105;BME280;3594;42.152;24.714;2024-01-10T02:52:00;-23790.75;;;-0.86;100.00
7105;BME280;3594;42.152;24.714;2024-01-10T02:54:25;-23797.63;;;-0.62;100.00
7105;BME280;3594;42.152;24.714;2024-01-10T02:56:51;-23790.91;;;-0.85;100.00
7105;BME280;3594;42.152;24.714;2024-01-10T02:59:17;-23791.59;;;-0.83;100.00
7105;BME280;3594;42.152;24.714;2024-01-10T03:01:42;-23798.78;;;-0.58;100.00
7105;BME280;3594;42.152;24.714;2024-01-10T03:04:08;-23799.22;;;-0.56;100.00
7105;BME280;3594;42.152;24.714;2024-01-10T03:06:34;-23803.06;;;-0.42;100.00
7105;BME280;3594;42.152;24.714;2024-01-10T03:08:59;-23797.91;;;-0.61;100.00
7105;BME280;3594;42.152;24.714;2024-01-10T03:11:24;-23794.47;;;-0.73;100.00
7105;BME280;3594;42.152;24.714;2024-01-10T03:14:00;-23802.34;;;-0.45;100.00
7105;BME280;3594;42.152;24.714;2024-01-10T03:16:26;-23799.63;;;-0.55;100.00
7105;BME280;3594;42.152;24.714;2024-01-10T03:18:51;-23802.97;;;-0.36;100.00
7105;BME280;3594;42.152;24.714;2024-01-10T03:21:17;-23794.66;;;-0.66;100.00
7105;BME280;3594;42.152;24.714;2024-01-10T03:23:48;-23801.66;;;-0.41;100.00
7105;BME280;3594;42.152;24.714;2024-01-10T03:26:13;-23803.97;;;-0.33;100.00
7105;BME280;3594;42.152;24.714;2024-01-10T03:28:38;-23802.69;;;-0.37;100.00
7105;BME280;3594;42.152;24.714;2024-01-10T03:31:04;-23793.38;;;-0.70;100.00
7105;BME280;3594;42.152;24.714;2024-01-10T03:33:29;-23802.09;;;-0.39;100.00
7105;BME280;3594;42.152;24.714;2024-01-10T03:35:55;-23483.75;;;-0.59;100.00
7105;BME280;3594;42.152;24.714;2024-01-10T03:38:20;-23483.91;;;-0.58;100.00
7105;BME280;3594;42.152;24.714;2024-01-10T03:40:46;-23488.41;;;-0.42;100.00
7105;BME280;3594;42.152;24.714;2024-01-10T03:43:11;-23479.81;;;-0.73;100.00
7105;BME280;3594;42.152;24.714;2024-01-10T03:45:37;-23483.47;;;-0.60;100.00
7105;BME280;3594;42.152;24.714;2024-01-10T03:48:03;-23478.56;;;-0.77;100.00
7105;BME280;3594;42.152;24.714;2024-01-10T03:50:28;-23485.31;;;-0.53;100.00
7105;BME280;3594;42.152;24.714;2024-01-10T03:52:54;-23484.19;;;-0.57;100.00
7105;BME280;3594;42.152;24.714;2024-01-10T03:55:19;-23791.63;;;-0.76;100.00
7105;BME280;3594;42.152;24.714;2024-01-10T03:57:45;-23487.97;;;-0.43;100.00
7105;BME280;3594;42.152;24.714;2024-01-10T04:00:10;-23479.97;;;-0.72;100.00
7105;BME280;3594;42.152;24.714;2024-01-10T04:02:37;-23484.75;;;-0.55;100.00
7105;BME280;3594;42.152;24.714;2024-01-10T04:05:09;-23789.34;;;-0.84;100.00
7105;BME280;3594;42.152;24.714;2024-01-10T04:07:41;-23796.94;;;-0.58;100.00
7105;BME280;3594;42.152;24.714;2024-01-10T04:10:10;-23787.06;;;-0.93;100.00
7105;BME280;3594;42.152;24.714;2024-01-10T04:12:36;-23790.78;;;-0.79;100.00
7105;BME280;3594;42.152;24.714;2024-01-10T04:15:03;-23795.38;;;-0.63;100.00
7105;BME280;3594;42.152;24.714;2024-01-10T04:17:29;-23791.47;;;-0.83;100.00
7105;BME280;3594;42.152;24.714;2024-01-10T04:19:54;-23797.78;;;-0.61;100.00
7105;BME280;3594;42.152;24.714;2024-01-10T04:22:20;-23797.66;;;-0.55;100.00
7105;BME280;3594;42.152;24.714;2024-01-10T04:24:45;-23788.06;;;-0.89;100.00
7105;BME280;3594;42.152;24.714;2024-01-10T04:27:10;-23792.03;;;-0.81;100.00
7105;BME280;3594;42.152;24.714;2024-01-10T04:29:36;-23794.91;;;-0.71;100.00
7105;BME280;3594;42.152;24.714;2024-01-10T04:32:02;-23794.19;;;-0.74;100.00
7105;BME280;3594;42.152;24.714;2024-01-10T04:34:28;-23786.72;;;-1.00;100.00
7105;BME280;3594;42.152;24.714;2024-01-10T04:36:53;-23789.47;;;-0.91;100.00
7105;BME280;3594;42.152;24.714;2024-01-10T04:39:18;-23782.44;;;-1.15;100.00
7105;BME280;3594;42.152;24.714;2024-01-10T04:41:44;-23789.88;;;-0.89;100.00
7105;BME280;3594;42.152;24.714;2024-01-10T04:44:09;-23790.19;;;-0.88;100.00
7105;BME280;3594;42.152;24.714;2024-01-10T04:46:35;-23780.44;;;-1.22;100.00
7105;BME280;3594;42.152;24.714;2024-01-10T04:49:00;-23779.13;;;-1.27;100.00
7105;BME280;3594;42.152;24.714;2024-01-10T04:51:25;-23779.28;;;-1.26;100.00
7105;BME280;3594;42.152;24.714;2024-01-10T04:53:51;-23774.69;;;-1.43;100.00
7105;BME280;3594;42.152;24.714;2024-01-10T04:56:17;-23779.00;;;-1.27;100.00
7105;BME280;3594;42.152;24.714;2024-01-10T04:58:43;-23785.72;;;-1.04;100.00
7105;BME280;3594;42.152;24.714;2024-01-10T05:01:08;-23783.16;;;-1.13;100.00
7105;BME280;3594;42.152;24.714;2024-01-10T05:03:33;-23777.41;;;-1.33;100.00
7105;BME280;3594;42.152;24.714;2024-01-10T05:05:59;-23767.66;;;-1.67;100.00
7105;BME280;3594;42.152;24.714;2024-01-10T05:08:24;-23776.97;;;-1.35;100.00
7105;BME280;3594;42.152;24.714;2024-01-10T05:10:49;-23780.28;;;-1.23;100.00
7105;BME280;3594;42.152;24.714;2024-01-10T05:13:15;-23774.53;;;-1.43;100.00
7105;BME280;3594;42.152;24.714;2024-01-10T05:15:41;-23784.44;;;-1.08;100.00
7105;BME280;3594;42.152;24.714;2024-01-10T05:18:06;-23780.56;;;-1.22;100.00
7105;BME280;3594;42.152;24.714;2024-01-10T05:20:31;-23778.84;;;-1.28;100.00
7105;BME280;3594;42.152;24.714;2024-01-10T05:22:57;-23775.84;;;-1.39;100.00
7105;BME280;3594;42.152;24.714;2024-01-10T05:25:24;-23776.56;;;-1.36;100.00
7105;BME280;3594;42.152;24.714;2024-01-10T05:27:50;-23778.13;;;-1.30;100.00
7105;BME280;3594;42.152;24.714;2024-01-10T05:30:15;-23774.41;;;-1.44;100.00
7105;BME280;3594;42.152;24.714;2024-01-10T05:32:41;-23768.94;;;-1.63;100.00
7105;BME280;3594;42.152;24.714;2024-01-10T05:35:08;-23770.53;;;-1.57;100.00
7105;BME280;3594;42.152;24.714;2024-01-10T05:37:36;-23775.13;;;-1.41;100.00
7105;BME280;3594;42.152;24.714;2024-01-10T05:40:01;-23775.13;;;-1.41;100.00
7105;BME280;3594;42.152;24.714;2024-01-10T05:42:27;-23775.84;;;-1.39;100.00
7105;BME280;3594;42.152;24.714;2024-01-10T05:44:53;-23772.81;;;-1.49;100.00
7105;BME280;3594;42.152;24.714;2024-01-10T05:47:18;-23772.25;;;-1.51;100.00
7105;BME280;3594;42.152;24.714;2024-01-10T05:49:43;-23769.53;;;-1.61;100.00
7105;BME280;3594;42.152;24.714;2024-01-10T05:52:09;-23762.78;;;-1.85;100.00
7105;BME280;3594;42.152;24.714;2024-01-10T05:54:34;-23769.81;;;-1.60;100.00
7105;BME280;3594;42.152;24.714;2024-01-10T05:56:59;-23762.50;;;-1.86;100.00
7105;BME280;3594;42.152;24.714;2024-01-10T05:59:28;-23759.91;;;-1.95;100.00
7105;BME280;3594;42.152;24.714;2024-01-10T06:01:53;-23759.63;;;-1.96;100.00
7105;BME280;3594;42.152;24.714;2024-01-10T06:04:19;-23761.19;;;-1.90;100.00
7105;BME280;3594;42.152;24.714;2024-01-10T06:06:44;-23755.31;;;-2.11;100.00
7105;BME280;3594;42.152;24.714;2024-01-10T06:09:10;-23762.06;;;-1.87;100.00
7105;BME280;3594;42.152;24.714;2024-01-10T06:11:45;-23761.91;;;-1.88;100.00
7105;BME280;3594;42.152;24.714;2024-01-10T06:14:10;-23770.94;;;-1.56;100.00
7105;BME280;3594;42.152;24.714;2024-01-10T06:16:36;-23769.53;;;-1.61;100.00
7105;BME280;3594;42.152;24.714;2024-01-10T06:19:01;-23769.38;;;-1.61;100.00
7105;BME280;3594;42.152;24.714;2024-01-10T06:21:26;-23769.66;;;-1.60;100.00
7105;BME280;3594;42.152;24.714;2024-01-10T06:23:52;-23771.81;;;-1.53;100.00
7105;BME280;3594;42.152;24.714;2024-01-10T06:26:18;-23766.78;;;-1.70;100.00
7105;BME280;3594;42.152;24.714;2024-01-10T06:28:43;-23773.69;;;-1.46;100.00
7105;BME280;3594;42.152;24.714;2024-01-10T06:31:08;-23773.69;;;-1.46;100.00
7105;BME280;3594;42.152;24.714;2024-01-10T06:33:34;-23773.25;;;-1.48;100.00
7105;BME280;3594;42.152;24.714;2024-01-10T06:35:59;-23769.09;;;-1.62;100.00
7105;BME280;3594;42.152;24.714;2024-01-10T06:38:25;-23769.38;;;-1.61;100.00
7105;BME280;3594;42.152;24.714;2024-01-10T06:40:51;-23772.81;;;-1.49;100.00
7105;BME280;3594;42.152;24.714;2024-01-10T06:43:16;-23778.56;;;-1.29;100.00
7105;BME280;3594;42.152;24.714;2024-01-10T06:45:41;-23778.00;;;-1.31;100.00
7105;BME280;3594;42.152;24.714;2024-01-10T06:48:07;-23776.84;;;-1.35;100.00
7105;BME280;3594;42.152;24.714;2024-01-10T06:50:33;-23771.25;;;-1.55;100.00
7105;BME280;3594;42.152;24.714;2024-01-10T06:52:59;-23768.38;;;-1.65;100.00
7105;BME280;3594;42.152;24.714;2024-01-10T06:55:24;-23777.13;;;-1.34;100.00
7105;BME280;3594;42.152;24.714;2024-01-10T06:57:51;-23777.56;;;-1.33;100.00
7105;BME280;3594;42.152;24.714;2024-01-10T07:00:22;-23779.56;;;-1.25;100.00
7105;BME280;3594;42.152;24.714;2024-01-10T07:02:47;-23779.72;;;-1.25;100.00
7105;BME280;3594;42.152;24.714;2024-01-10T07:05:14;-23782.00;;;-1.17;100.00
7105;BME280;3594;42.152;24.714;2024-01-10T07:07:40;-23779.13;;;-1.27;100.00
7105;BME280;3594;42.152;24.714;2024-01-10T07:10:05;-23778.69;;;-1.28;100.00
7105;BME280;3594;42.152;24.714;2024-01-10T07:12:34;-23784.44;;;-1.08;100.00
7105;BME280;3594;42.152;24.714;2024-01-10T07:15:00;-23779.28;;;-1.26;100.00
7105;BME280;3594;42.152;24.714;2024-01-10T07:17:25;-23785.88;;;-1.03;100.00
7105;BME280;3594;42.152;24.714;2024-01-10T07:19:51;-23788.16;;;-0.95;100.00
7105;BME280;3594;42.152;24.714;2024-01-10T07:22:16;-23782.56;;;-1.15;100.00
7105;BME280;3594;42.152;24.714;2024-01-10T07:24:43;-23790.19;;;-0.88;100.00
7105;BME280;3594;42.152;24.714;2024-01-10T07:27:08;-23792.47;;;-0.80;100.00
7105;BME280;3594;42.152;24.714;2024-01-10T07:29:34;-23785.16;;;-1.06;100.00
7105;BME280;3594;42.152;24.714;2024-01-10T07:32:00;-23795.34;;;-0.70;100.00
7105;BME280;3594;42.152;24.714;2024-01-10T07:34:25;-23795.63;;;-0.69;100.00
7105;BME280;3594;42.152;24.714;2024-01-10T07:36:51;-23796.91;;;-0.64;100.00
7105;BME280;3594;42.152;24.714;2024-01-10T07:39:17;-23796.78;;;-0.65;100.00
7105;BME280;3594;42.152;24.714;2024-01-10T07:41:43;-23793.75;;;-0.75;100.00
7105;BME280;3594;42.152;24.714;2024-01-10T07:44:09;-23796.19;;;-0.67;100.00
7105;BME280;3594;42.152;24.714;2024-01-10T07:46:35;-23795.34;;;-0.70;100.00
7105;BME280;3594;42.152;24.714;2024-01-10T07:49:03;-23798.34;;;-0.59;100.00
7105;BME280;3594;42.152;24.714;2024-01-10T07:51:30;-23801.94;;;-0.47;100.00
7105;BME280;3594;42.152;24.714;2024-01-10T07:53:55;-23804.06;;;-0.39;100.00
7105;BME280;3594;42.152;24.714;2024-01-10T07:56:21;-23803.78;;;-0.40;100.00
7105;BME280;3594;42.152;24.714;2024-01-10T07:58:47;-23801.50;;;-0.48;100.00
7105;BME280;3594;42.152;24.714;2024-01-10T08:01:14;-23798.34;;;-0.59;100.00
7105;BME280;3594;42.152;24.714;2024-01-10T08:03:40;-23795.63;;;-0.69;100.00
7105;BME280;3594;42.152;24.714;2024-01-10T08:06:06;-23802.78;;;-0.43;100.00
7105;BME280;3594;42.152;24.714;2024-01-10T08:08:31;-23800.94;;;-0.50;100.00
7105;BME280;3594;42.152;24.714;2024-01-10T08:10:57;-23796.63;;;-0.65;100.00
7105;BME280;3594;42.152;24.714;2024-01-10T08:13:22;-23794.34;;;-0.73;100.00
7105;BME280;3594;42.152;24.714;2024-01-10T08:15:48;-23793.19;;;-0.77;100.00
7105;BME280;3594;42.152;24.714;2024-01-10T08:18:13;-23801.50;;;-0.48;100.00
7105;BME280;3594;42.152;24.714;2024-01-10T08:20:39;-23800.94;;;-0.50;100.00
7105;BME280;3594;42.152;24.714;2024-01-10T08:23:05;-23802.78;;;-0.43;100.00
7105;BME280;3594;42.152;24.714;2024-01-10T08:25:30;-23807.38;;;-0.27;100.00
7105;BME280;3594;42.152;24.714;2024-01-10T08:27:56;-23802.06;;;-0.46;100.00
7105;BME280;3594;42.152;24.714;2024-01-10T08:30:23;-23796.06;;;-0.67;100.00
7105;BME280;3594;42.152;24.714;2024-01-10T08:32:49;-23795.78;;;-0.62;100.00
7105;BME280;3594;42.152;24.714;2024-01-10T08:35:14;-23799.94;;;-0.47;100.00
7105;BME280;3594;42.152;24.714;2024-01-10T08:37:40;-23797.94;;;-0.54;100.00
7105;BME280;3594;42.152;24.714;2024-01-10T08:40:09;-23800.53;;;-0.45;100.00
7105;BME280;3594;42.152;24.714;2024-01-10T08:42:40;-23804.38;;;-0.31;100.00
7105;BME280;3594;42.152;24.714;2024-01-10T08:45:06;-23179.28;;;-0.28;100.00
7105;BME280;3594;42.152;24.714;2024-01-10T08:47:34;-22548.63;;;-0.45;100.00
7105;BME280;3594;42.152;24.714;2024-01-10T08:50:01;-21301.38;;;-0.23;100.00
7105;BME280;3594;42.152;24.714;2024-01-10T08:52:27;-21295.72;;;-0.46;100.00
7105;BME280;3594;42.152;24.714;2024-01-10T08:54:52;-21611.03;;;-0.37;100.00
7105;BME280;3594;42.152;24.714;2024-01-10T08:57:18;-22238.78;;;-0.32;100.00
7105;BME280;3594;42.152;24.714;2024-01-10T08:59:43;-20673.19;;;-0.29;100.00
7105;BME280;3594;42.152;24.714;2024-01-10T09:02:09;-19106.66;;;-0.27;100.00
7105;BME280;3594;42.152;24.714;2024-01-10T09:04:34;-19740.50;;;0.05;100.00
7105;BME280;3594;42.152;24.714;2024-01-10T09:07:00;-19113.56;;;0.07;100.00
7105;BME280;3594;42.152;24.714;2024-01-10T09:09:25;-20367.28;;;0.04;100.00
7105;BME280;3594;42.152;24.714;2024-01-10T09:11:50;-20996.31;;;0.12;100.00
7105;BME280;3594;42.152;24.714;2024-01-10T09:14:16;-20682.44;;;0.11;100.00
7105;BME280;3594;42.152;24.714;2024-01-10T09:16:41;-20686.31;;;0.27;100.00
7105;BME280;3594;42.152;24.714;2024-01-10T09:19:06;-21629.66;;;0.38;100.00
7105;BME280;3594;42.152;24.714;2024-01-10T09:21:32;-21626.28;;;0.24;100.00
7105;BME280;3594;42.152;24.714;2024-01-10T09:23:57;-20695.00;;;0.65;100.00
7105;BME280;3594;42.152;24.714;2024-01-10T09:26:23;-17240.22;;;0.59;100.00
7105;BME280;3594;42.152;24.714;2024-01-10T09:28:48;-15038.31;;;0.42;100.00
7105;BME280;3594;42.152;24.714;2024-01-10T09:31:14;-15987.66;;;0.86;100.00
7105;BME280;3594;42.152;24.714;2024-01-10T09:33:40;-17249.16;;;1.10;100.00
7105;BME280;3594;42.152;24.714;2024-01-10T09:36:05;-17569.19;;;1.42;100.00
7105;BME280;3594;42.152;24.714;2024-01-10T09:38:35;-16941.56;;;1.50;100.00
7105;BME280;3594;42.152;24.714;2024-01-10T09:41:03;-17253.06;;;1.32;100.00
7105;BME280;3594;42.152;24.714;2024-01-10T09:43:30;-16950.31;;;2.02;100.00
7105;BME280;3594;42.152;24.714;2024-01-10T09:45:57;-15691.66;;;2.09;100.00
7105;BME280;3594;42.152;24.714;2024-01-10T09:48:24;-14750.34;;;2.39;100.00
7105;BME280;3594;42.152;24.714;2024-01-10T09:50:51;-16323.94;;;2.23;100.00
7105;BME280;3594;42.152;24.714;2024-01-10T09:53:24;-17588.44;;;2.49;100.00
7105;BME280;3594;42.152;24.714;2024-01-10T09:55:50;-16014.38;;;2.59;100.00
7105;BME280;3594;42.152;24.714;2024-01-10T09:58:15;-13175.75;;;2.60;100.00
7105;BME280;3594;42.152;24.714;2024-01-10T10:00:41;-12227.47;;;2.44;100.00
7105;BME280;3594;42.152;24.714;2024-01-10T10:03:10;-13489.41;;;2.43;100.00
7105;BME280;3594;42.152;24.714;2024-01-10T10:05:38;-15069.56;;;2.67;100.00
7105;BME280;3594;42.152;24.714;2024-01-10T10:08:06;-13490.78;;;2.55;100.00
7105;BME280;3594;42.152;24.714;2024-01-10T10:10:32;-2745.53;;;2.66;100.00
7105;BME280;3594;42.152;24.714;2024-01-10T10:12:58;-1798.72;;;2.27;100.00
7105;BME280;3594;42.152;24.714;2024-01-10T10:15:24;-7490.63;;;2.41;100.00
7105;BME280;3594;42.152;24.714;2024-01-10T10:17:53;-1799.69;;;2.15;100.00
7105;BME280;3594;42.152;24.714;2024-01-10T10:20:29;-3379.75;;;2.46;100.00
7105;BME280;3594;42.152;24.714;2024-01-10T10:23:04;-7174.56;;;2.35;100.00
7105;BME280;3594;42.152;24.714;2024-01-10T10:25:31;-217.63;;;2.11;100.00
7105;BME280;3594;42.152;24.714;2024-01-10T10:27:58;-4647.69;;;1.68;100.00
7105;BME280;3594;42.152;24.714;2024-01-10T10:30:23;-5910.66;;;2.04;100.00
7105;BME280;3594;42.152;24.714;2024-01-10T10:32:49;-7490.06;;;2.02;100.00
7105;BME280;3594;42.152;24.714;2024-01-10T10:35:15;-10961.72;;;1.98;100.00
7105;BME280;3594;42.152;24.714;2024-01-10T10:37:40;-7805.72;;;1.96;100.00
7105;BME280;3594;42.152;24.714;2024-01-10T10:40:06;-8121.94;;;2.15;100.00
7105;BME280;3594;42.152;24.714;2024-01-10T10:42:40;-10331.81;;;2.15;100.00
7105;BME280;3594;42.152;24.714;2024-01-10T10:45:09;-9068.97;;;2.09;100.00
7105;BME280;3594;42.152;24.714;2024-01-10T10:47:38;-4962.78;;;1.99;100.00
7105;BME280;3594;42.152;24.714;2024-01-10T10:50:13;-2117.69;;;1.93;100.00
7105;BME280;3594;42.152;24.714;2024-01-10T10:52:45;-2118.56;;;1.81;100.00
7105;BME280;3594;42.152;24.714;2024-01-10T10:55:14;-224.41;;;1.46;100.00
7105;BME280;3594;42.152;24.714;2024-01-10T10:57:43;4213.19;;;1.89;100.00
7105;BME280;3594;42.152;24.714;2024-01-10T11:00:09;1678.22;;;1.82;100.00
7105;BME280;3594;42.152;24.714;2024-01-10T11:02:37;94.16;;;1.67;100.00
7105;BME280;3594;42.152;24.714;2024-01-10T11:05:03;414.78;;;2.04;100.00
7105;BME280;3594;42.152;24.714;2024-01-10T11:07:30;-534.47;;;2.08;100.00
7105;BME280;3594;42.152;24.714;2024-01-10T11:09:56;-2116.31;;;2.12;100.00
7105;BME280;3594;42.152;24.714;2024-01-10T11:12:29;-2115.59;;;2.21;100.00
7105;BME280;3594;42.152;24.714;2024-01-10T11:15:11;-3697.28;;;2.22;100.00
7105;BME280;3594;42.152;24.714;2024-01-10T11:23:08;-1161.84;;;2.70;100.00
7105;BME280;3594;42.152;24.714;2024-01-10T11:25:37;-1795.56;;;2.67;100.00
7105;BME280;3594;42.152;24.714;2024-01-10T11:28:04;423.00;;;2.76;100.00
7105;BME280;3594;42.152;24.714;2024-01-10T11:30:33;2962.44;;;2.94;100.00
7105;BME280;3594;42.152;24.714;2024-01-10T11:33:18;9635.19;;;3.05;100.00
7105;BME280;3594;42.152;24.714;2024-01-10T11:38:41;9321.31;;;3.21;100.00
7105;BME280;3594;42.152;24.714;2024-01-10T11:41:10;8041.72;;;2.89;100.00
7105;BME280;3594;42.152;24.714;2024-01-10T11:43:35;7410.72;;;3.08;100.00
7105;BME280;3594;42.152;24.714;2024-01-10T11:46:02;8046.84;;;3.10;100.00
7105;BME280;3594;42.152;24.714;2024-01-10T11:48:31;4231.28;;;2.91;100.00
7105;BME280;3594;42.152;24.714;2024-01-10T11:50:57;5816.66;;;2.81;100.00
7105;BME280;3594;42.152;24.714;2024-01-10T11:53:44;5823.59;;;3.15;100.00
7105;BME280;3594;42.152;24.714;2024-01-10T11:56:13;2964.72;;;3.08;100.00
7105;BME280;3594;42.152;24.714;2024-01-10T11:59:03;2018.66;;;3.50;100.00
7105;BME280;3594;42.152;24.714;2024-01-10T12:01:35;2967.38;;;3.25;100.00
7105;BME280;3594;42.152;24.714;2024-01-10T12:04:02;6470.53;;;3.69;100.00
7105;BME280;3594;42.152;24.714;2024-01-10T12:06:29;9651.81;;;3.67;100.00
7105;BME280;3594;42.152;24.714;2024-01-10T12:08:54;9338.56;;;3.86;100.00
7105;BME280;3594;42.152;24.714;2024-01-10T12:11:20;8699.44;;;3.77;100.00
7105;BME280;3594;42.152;24.714;2024-01-10T12:13:47;9982.19;;;4.11;100.00
7105;BME280;3594;42.152;24.714;2024-01-10T12:16:13;13162.88;;;3.91;100.00
7105;BME280;3594;42.152;24.714;2024-01-10T12:18:40;13804.75;;;4.04;100.00
7105;BME280;3594;42.152;24.714;2024-01-10T12:21:06;12519.66;;;3.73;100.00
7105;BME280;3594;42.152;24.714;2024-01-10T12:23:31;15387.22;;;3.69;100.00
7105;BME280;3594;42.152;24.714;2024-01-10T12:26:01;15063.13;;;3.54;100.00
7105;BME280;3594;42.152;24.714;2024-01-10T12:28:27;17947.59;;;3.90;100.00
7105;BME280;3594;42.152;24.714;2024-01-10T12:30:53;16035.78;;;3.98;100.00
7105;BME280;3594;42.152;24.714;2024-01-10T12:33:22;16357.94;;;4.06;100.00
7105;BME280;3594;42.152;24.714;2024-01-10T12:36:10;25303.41;;;4.00;100.00
7105;BME280;3594;42.152;24.714;2024-01-10T12:38:37;24963.72;;;3.62;100.00
7105;BME280;3594;42.152;24.714;2024-01-10T12:41:04;28501.97;;;3.95;100.00
7105;BME280;3594;42.152;24.714;2024-01-10T12:43:30;34281.44;;;4.09;100.00
7105;BME280;3594;42.152;24.714;2024-01-10T12:46:11;34885.22;;;3.53;100.00
7105;BME280;3594;42.152;24.714;2024-01-10T12:48:38;34559.44;;;3.46;100.00
7105;BME280;3594;42.152;24.714;2024-01-10T12:51:09;37446.44;;;3.46;100.00
7105;BME280;3594;42.152;24.714;2024-01-10T12:53:38;34248.38;;;3.60;100.00
7105;BME280;3594;42.152;24.714;2024-01-10T12:56:05;31368.59;;;3.68;100.00
7105;BME280;3594;42.152;24.714;2024-01-10T12:58:32;36179.59;;;3.70;100.00
7105;BME280;3594;42.152;24.714;2024-01-10T13:00:59;41365.97;;;3.61;100.00
7105;BME280;3594;42.152;24.714;2024-01-10T13:03:25;44869.72;;;3.58;100.00